createdAt,value
2023-01-25T00:00:29.215Z,103814.31
2023-01-25T00:02:55.955Z,103789.09
2023-01-25T00:05:23.036Z,103798.66
2023-01-25T00:07:49.709Z,103809.09
2023-01-25T00:10:16.413Z,103808.19
2023-01-25T00:12:43.438Z,103754.25
2023-01-25T00:15:10.867Z,103802.97
2023-01-25T00:17:37.789Z,103805.56
2023-01-25T00:20:04.981Z,103799.47
2023-01-25T00:22:31.629Z,103811.63
2023-01-25T00:24:58.394Z,103778.59
2023-01-25T00:27:25.325Z,103806.44
2023-01-25T00:29:52.043Z,103807.28
2023-01-25T00:32:21.901Z,103807.28
2023-01-25T00:34:52.589Z,103775.09
2023-01-25T00:37:21.657Z,103802.91
2023-01-25T00:39:48.522Z,103770.72
2023-01-25T00:42:17.054Z,103787.25
2023-01-25T00:44:43.862Z,103759.41
2023-01-25T00:47:11.429Z,103760.28
2023-01-25T00:49:39.907Z,103788.13
2023-01-25T00:52:07.795Z,103785.50
2023-01-25T00:54:34.551Z,103791.59
2023-01-25T00:57:01.487Z,103774.19
2023-01-25T00:59:28.210Z,103756.81
2023-01-25T01:01:55.025Z,103742.91
2023-01-25T01:04:25.237Z,103780.28
2023-01-25T01:06:55.325Z,103785.50
2023-01-25T01:09:23.881Z,103780.28
2023-01-25T01:11:50.836Z,103766.38
2023-01-25T01:14:17.900Z,103688.13
2023-01-25T01:16:44.653Z,103764.66
2023-01-25T01:19:11.559Z,103769.88
2023-01-25T01:21:38.514Z,103740.31
2023-01-25T01:24:05.771Z,103744.63
2023-01-25T01:26:32.676Z,103761.16
2023-01-25T01:28:59.644Z,103763.75
2023-01-25T01:31:26.831Z,103737.66
2023-01-25T01:33:56.309Z,103754.19
2023-01-25T01:36:25.848Z,103753.31
2023-01-25T01:38:52.675Z,103735.94
2023-01-25T01:41:20.239Z,103708.97
2023-01-25T01:43:47.603Z,103724.59
2023-01-25T01:46:22.372Z,103757.63
2023-01-25T01:49:06.948Z,103751.50
2023-01-25T01:51:42.727Z,103755.00
2023-01-25T01:54:32.563Z,103749.78
2023-01-25T01:57:05.475Z,103752.41
2023-01-25T01:59:37.731Z,103733.28
2023-01-25T02:02:04.724Z,103735.00
2023-01-25T02:04:33.046Z,103741.13
2023-01-25T02:07:05.933Z,103742.88
2023-01-25T02:09:36.201Z,103715.03
2023-01-25T02:12:04.591Z,103746.34
2023-01-25T02:14:31.569Z,103748.94
2023-01-25T02:16:58.621Z,103715.03
2023-01-25T02:19:50.249Z,103739.34
2023-01-25T02:22:23.132Z,103693.28
2023-01-25T02:25:19.890Z,103715.88
2023-01-25T02:27:53.814Z,103719.34
2023-01-25T02:30:21.134Z,103721.94
2023-01-25T02:32:47.876Z,103719.34
2023-01-25T02:35:36.838Z,103654.97
2023-01-25T02:38:04.498Z,103693.22
2023-01-25T02:40:32.928Z,103721.03
2023-01-25T02:42:59.678Z,103665.41
2023-01-25T02:45:29.777Z,103699.31
2023-01-25T02:47:56.445Z,103706.25
2023-01-25T02:50:23.304Z,103658.47
2023-01-25T02:52:50.044Z,103694.97
2023-01-25T02:55:16.722Z,103705.38
2023-01-25T02:57:43.669Z,103693.22
2023-01-25T03:00:11.140Z,103698.44
2023-01-25T03:02:37.925Z,103668.84
2023-01-25T03:05:05.072Z,103671.44
2023-01-25T03:07:31.813Z,103647.97
2023-01-25T03:09:58.453Z,103663.63
2023-01-25T03:12:25.351Z,103679.25
2023-01-25T03:14:52.048Z,103656.63
2023-01-25T03:17:18.757Z,103651.41
2023-01-25T03:19:45.887Z,103661.81
2023-01-25T03:22:12.568Z,103645.28
2023-01-25T03:24:39.363Z,103652.28
2023-01-25T03:27:18.579Z,103665.31
2023-01-25T03:29:46.091Z,103667.06
2023-01-25T03:32:12.907Z,103641.88
2023-01-25T03:34:39.760Z,103667.06
2023-01-25T03:37:07.103Z,103650.63
2023-01-25T03:39:33.880Z,103659.31
2023-01-25T03:42:00.737Z,103661.06
2023-01-25T03:44:27.505Z,103645.41
2023-01-25T03:46:54.199Z,103643.66
2023-01-25T03:49:21.090Z,103617.56
2023-01-25T03:51:47.892Z,103607.19
2023-01-25T03:54:14.642Z,103631.47
2023-01-25T03:56:42.662Z,103605.41
2023-01-25T03:59:11.354Z,103627.13
2023-01-25T04:01:38.399Z,103612.34
2023-01-25T04:04:05.169Z,103588.91
2023-01-25T04:06:31.924Z,103593.28
2023-01-25T04:08:58.690Z,103532.50
2023-01-25T04:11:25.450Z,103606.31
2023-01-25T04:13:52.200Z,103616.72
2023-01-25T04:16:18.920Z,103625.41
2023-01-25T04:18:45.713Z,103620.19
2023-01-25T04:21:12.438Z,103612.38
2023-01-25T04:23:39.099Z,103608.03
2023-01-25T04:26:07.857Z,103593.25
2023-01-25T04:28:35.751Z,103562.84
2023-01-25T04:31:03.750Z,103618.44
2023-01-25T04:33:30.761Z,103616.69
2023-01-25T04:35:57.745Z,103619.31
2023-01-25T04:38:24.825Z,103621.88
2023-01-25T04:40:52.670Z,103570.59
2023-01-25T04:43:20.852Z,103613.19
2023-01-25T04:45:47.728Z,103540.25
2023-01-25T04:48:15.327Z,103582.81
2023-01-25T04:50:43.177Z,103596.69
2023-01-25T04:53:12.043Z,103606.25
2023-01-25T04:55:39.676Z,103579.31
2023-01-25T04:58:06.885Z,103588.84
2023-01-25T05:00:33.681Z,103567.16
2023-01-25T05:03:00.431Z,103593.19
2023-01-25T05:05:27.375Z,103592.28
2023-01-25T05:07:54.058Z,103596.66
2023-01-25T05:10:20.834Z,103601.84
2023-01-25T05:12:47.587Z,103607.13
2023-01-25T05:15:14.564Z,103609.72
2023-01-25T05:17:41.465Z,103599.31
2023-01-25T05:20:08.664Z,103608.03
2023-01-25T05:22:35.405Z,103601.09
2023-01-25T05:25:03.920Z,103580.25
2023-01-25T05:27:30.653Z,103570.69
2023-01-25T05:29:57.874Z,103608.91
2023-01-25T05:32:25.122Z,103615.00
2023-01-25T05:34:52.031Z,103594.13
2023-01-25T05:37:20.504Z,103605.44
2023-01-25T05:39:47.451Z,103592.41
2023-01-25T05:42:17.158Z,103606.31
2023-01-25T05:44:46.125Z,103578.47
2023-01-25T05:47:16.217Z,103583.66
2023-01-25T05:49:42.866Z,103579.34
2023-01-25T05:52:15.325Z,103593.22
2023-01-25T05:54:42.281Z,103550.66
2023-01-25T05:57:09.063Z,103560.19
2023-01-25T05:59:35.794Z,103568.00
2023-01-25T06:02:02.616Z,103579.28
2023-01-25T06:04:29.458Z,103570.56
2023-01-25T06:06:56.122Z,103561.97
2023-01-25T06:09:23.611Z,103568.06
2023-01-25T06:11:50.409Z,103577.59
2023-01-25T06:14:17.330Z,103595.91
2023-01-25T06:16:44.259Z,103577.63
2023-01-25T06:19:13.381Z,103591.53
2023-01-25T06:21:40.010Z,103581.09
2023-01-25T06:24:07.557Z,103587.19
2023-01-25T06:26:34.253Z,103516.00
2023-01-25T06:29:00.927Z,103575.91
2023-01-25T06:31:27.920Z,103581.13
2023-01-25T06:33:54.632Z,103544.63
2023-01-25T06:36:22.602Z,103526.38
2023-01-25T06:38:52.978Z,103568.06
2023-01-25T06:41:20.507Z,103535.09
2023-01-25T06:43:48.171Z,103487.31
2023-01-25T06:46:15.412Z,103577.63
2023-01-25T06:48:43.144Z,103568.97
2023-01-25T06:51:12.501Z,103582.03
2023-01-25T06:53:43.935Z,103541.19
2023-01-25T06:56:13.299Z,103547.28
2023-01-25T06:58:40.588Z,103559.44
2023-01-25T07:01:27.870Z,103580.31
2023-01-25T07:03:57.400Z,103535.13
2023-01-25T07:06:25.677Z,103565.50
2023-01-25T07:08:52.689Z,103573.31
2023-01-25T07:11:19.596Z,103536.81
2023-01-25T07:13:47.767Z,103562.88
2023-01-25T07:16:17.516Z,103553.28
2023-01-25T07:18:44.592Z,103562.00
2023-01-25T07:21:14.342Z,103560.25
2023-01-25T07:23:41.764Z,103553.31
2023-01-25T07:26:25.311Z,103538.53
2023-01-25T07:28:53.214Z,103558.53
2023-01-25T07:31:20.845Z,103521.19
2023-01-25T07:33:49.748Z,103563.72
2023-01-25T07:36:17.107Z,103531.59
2023-01-25T07:38:43.933Z,103525.50
2023-01-25T07:41:10.987Z,103555.91
2023-01-25T07:43:38.096Z,103535.94
2023-01-25T07:46:07.712Z,103553.31
2023-01-25T07:48:34.749Z,103533.38
2023-01-25T07:51:13.175Z,103530.69
2023-01-25T07:53:41.495Z,103513.34
2023-01-25T07:56:09.823Z,103499.44
2023-01-25T07:58:37.067Z,103529.78
2023-01-25T08:01:08.568Z,103533.28
2023-01-25T08:03:35.257Z,103540.25
2023-01-25T08:06:02.039Z,103535.88
2023-01-25T08:08:28.971Z,103521.16
2023-01-25T08:10:55.613Z,103526.38
2023-01-25T08:13:22.532Z,103526.34
2023-01-25T08:15:56.143Z,103522.88
2023-01-25T08:18:22.970Z,103518.56
2023-01-25T08:20:49.748Z,103515.03
2023-01-25T08:23:16.780Z,103497.66
2023-01-25T08:25:43.585Z,103497.59
2023-01-25T08:28:10.512Z,103507.16
2023-01-25T08:30:41.236Z,103510.66
2023-01-25T08:33:12.955Z,103475.91
2023-01-25T08:35:39.949Z,103472.44
2023-01-25T08:38:06.767Z,103500.19
2023-01-25T08:40:35.864Z,103491.50
2023-01-25T08:43:05.057Z,103460.25
2023-01-25T08:45:34.692Z,103481.00
2023-01-25T08:48:01.911Z,103485.38
2023-01-25T08:50:29.264Z,103450.66
2023-01-25T08:52:56.411Z,103473.22
2023-01-25T08:55:23.088Z,103454.97
2023-01-25T08:57:49.877Z,103459.25
2023-01-25T09:00:17.686Z,103475.75
2023-01-25T09:02:44.379Z,103485.31
2023-01-25T09:05:11.085Z,103474.88
2023-01-25T09:07:38.978Z,103461.88
2023-01-25T09:10:09.283Z,103470.53
2023-01-25T09:12:36.504Z,103484.44
2023-01-25T09:15:04.072Z,103479.22
2023-01-25T09:17:30.768Z,103464.47
2023-01-25T09:19:57.573Z,103471.44
2023-01-25T09:22:24.364Z,103470.59
2023-01-25T09:24:53.956Z,103408.16
2023-01-25T09:27:20.816Z,103453.22
2023-01-25T09:30:00.927Z,103479.28
2023-01-25T09:32:29.111Z,103461.03
2023-01-25T09:34:56.184Z,103471.44
2023-01-25T09:37:23.117Z,103454.94
2023-01-25T09:39:50.272Z,103441.94
2023-01-25T09:42:25.181Z,103467.03
2023-01-25T09:45:01.988Z,103453.97
2023-01-25T09:47:44.298Z,103399.28
2023-01-25T09:50:28.185Z,103446.97
2023-01-25T09:53:19.823Z,103442.63
2023-01-25T09:55:54.375Z,103442.63
2023-01-25T09:58:44.876Z,103431.34
2023-01-25T10:01:39.314Z,103433.03
2023-01-25T10:04:13.356Z,103407.91
2023-01-25T10:06:46.055Z,103426.13
2023-01-25T10:09:33.288Z,103408.72
2023-01-25T10:12:06.700Z,103412.19
2023-01-25T10:14:35.820Z,103393.13
2023-01-25T10:17:09.587Z,103425.25
2023-01-25T10:19:51.338Z,103423.50
2023-01-25T10:22:28.937Z,103407.84
2023-01-25T10:25:24.563Z,103414.72
2023-01-25T10:28:02.787Z,103412.09
2023-01-25T10:31:02.240Z,103402.56
2023-01-25T10:33:31.406Z,103336.59
2023-01-25T10:36:01.733Z,103386.84
2023-01-25T10:38:35.164Z,103390.31
2023-01-25T10:41:52.783Z,103378.13
2023-01-25T10:44:22.595Z,103350.38
2023-01-25T10:46:52.280Z,103364.19
2023-01-25T10:49:30.997Z,103357.22
2023-01-25T10:52:12.612Z,103357.22
2023-01-25T10:54:39.512Z,103348.56
2023-01-25T10:57:08.312Z,103332.91
2023-01-25T10:59:36.611Z,103327.56
2023-01-25T11:02:38.352Z,103342.34
2023-01-25T11:05:38.092Z,103331.91
2023-01-25T11:08:29.982Z,103327.53
2023-01-25T11:10:57.466Z,103320.53
2023-01-25T11:13:33.547Z,103278.94
2023-01-25T11:16:01.605Z,103318.78
2023-01-25T11:18:33.917Z,103317.91
2023-01-25T11:21:25.847Z,103310.03
2023-01-25T11:24:06.450Z,103278.78
2023-01-25T11:26:34.119Z,103286.53
2023-01-25T11:29:10.907Z,103281.38
2023-01-25T11:31:38.388Z,103277.00
2023-01-25T11:34:10.330Z,103271.81
2023-01-25T11:37:02.222Z,103271.75
2023-01-25T11:39:52.935Z,103256.13
2023-01-25T11:42:58.681Z,103249.09
2023-01-25T11:45:34.563Z,103236.03
2023-01-25T11:48:20.322Z,103235.16
2023-01-25T11:51:18.883Z,103236.91
2023-01-25T11:54:03.864Z,103233.34
2023-01-25T11:56:40.195Z,103224.63
2023-01-25T11:59:28.152Z,103214.19
2023-01-25T12:02:16.734Z,103203.78
2023-01-25T12:04:59.762Z,103195.97
2023-01-25T12:07:59.397Z,103146.59
2023-01-25T12:10:44.068Z,103144.81
2023-01-25T12:13:41.254Z,103165.44
2023-01-25T12:16:20.483Z,103158.41
2023-01-25T12:19:18.171Z,103146.25
2023-01-25T12:22:17.207Z,103153.88
2023-01-25T12:25:14.984Z,103147.66
2023-01-25T12:27:51.058Z,103144.09
2023-01-25T12:30:35.463Z,103144.97
2023-01-25T12:33:14.328Z,103123.25
2023-01-25T12:36:04.716Z,103126.63
2023-01-25T12:38:45.313Z,103117.84
2023-01-25T12:41:33.421Z,103093.66
2023-01-25T12:44:37.855Z,103091.81
2023-01-25T12:47:25.940Z,103105.63
2023-01-25T12:49:59.339Z,103094.38
2023-01-25T12:52:31.984Z,103096.13
2023-01-25T12:55:08.330Z,103012.38
2023-01-25T12:58:07.564Z,103067.59
2023-01-25T13:01:00.976Z,103076.97
2023-01-25T13:03:35.351Z,103074.25
2023-01-25T13:06:21.335Z,103062.06
2023-01-25T13:08:57.195Z,103058.44
2023-01-25T13:11:31.214Z,103049.72
2023-01-25T13:14:16.421Z,103051.44
2023-01-25T13:17:21.322Z,103054.94
2023-01-25T13:38:01.149Z,103031.53
2023-01-25T13:40:30.681Z,103029.88
2023-01-25T13:43:19.651Z,103022.03
2023-01-25T13:45:50.554Z,102963.22
2023-01-25T13:48:26.311Z,103008.09
2023-01-25T13:51:01.906Z,102976.91
2023-01-25T13:53:35.473Z,102982.94
2023-01-25T13:56:03.438Z,102982.09
2023-01-25T13:58:39.102Z,102943.38
2023-01-25T14:01:20.720Z,102974.41
2023-01-25T14:03:59.817Z,102955.34
2023-01-25T14:06:36.290Z,102987.19
2023-01-25T14:09:10.477Z,102990.69
2023-01-25T14:11:50.006Z,102992.41
2023-01-25T14:14:19.268Z,102996.78
2023-01-25T14:16:46.987Z,102997.69
2023-01-25T14:19:21.537Z,103000.28
2023-01-25T14:21:48.235Z,102973.41
2023-01-25T14:24:19.318Z,102957.75
2023-01-25T14:26:47.926Z,102985.38
2023-01-25T14:29:35.419Z,102945.59
2023-01-25T14:32:03.241Z,102941.19
2023-01-25T14:34:30.056Z,102968.78
2023-01-25T14:37:14.386Z,102941.19
2023-01-25T14:39:41.155Z,102955.84
2023-01-25T14:42:08.235Z,102952.38
2023-01-25T14:44:35.252Z,102936.84
2023-01-25T14:47:31.311Z,102953.19
2023-01-25T14:50:32.105Z,102946.25
2023-01-25T14:53:20.856Z,102910.00
2023-01-25T14:55:49.432Z,102899.66
2023-01-25T14:58:23.655Z,102903.09
2023-01-25T15:01:02.850Z,102898.81
2023-01-25T15:03:31.240Z,102907.38
2023-01-25T15:06:02.864Z,102847.00
2023-01-25T15:08:35.873Z,102852.13
2023-01-25T15:11:22.075Z,102898.59
2023-01-25T15:13:49.140Z,102866.72
2023-01-25T15:16:18.864Z,102903.94
2023-01-25T15:18:47.478Z,102915.16
2023-01-25T15:21:25.599Z,102923.94
2023-01-25T15:23:54.297Z,102896.41
2023-01-25T15:26:26.205Z,102935.28
2023-01-25T15:28:55.498Z,102943.16
2023-01-25T15:31:26.578Z,102926.81
2023-01-25T15:33:56.888Z,102939.81
2023-01-25T15:36:24.472Z,102920.94
2023-01-25T15:38:51.949Z,102919.22
2023-01-25T15:41:18.804Z,102944.22
2023-01-25T15:43:47.074Z,102929.53
2023-01-25T15:46:22.012Z,102937.09
2023-01-25T15:48:50.663Z,102937.16
2023-01-25T15:51:17.401Z,102920.75
2023-01-25T15:53:45.155Z,102853.44
2023-01-25T15:56:20.837Z,102921.50
2023-01-25T15:58:51.230Z,102912.03
2023-01-25T16:01:18.901Z,102900.78
2023-01-25T16:03:45.724Z,102867.19
2023-01-25T16:06:28.554Z,102914.66
2023-01-25T16:08:55.880Z,102906.94
2023-01-25T16:11:23.133Z,102914.78
2023-01-25T16:13:50.012Z,102842.31
2023-01-25T16:16:23.375Z,102900.94
2023-01-25T16:18:50.172Z,102858.50
2023-01-25T16:21:17.133Z,102887.84
2023-01-25T16:23:44.026Z,102859.38
2023-01-25T16:26:24.489Z,102893.00
2023-01-25T16:28:51.815Z,102890.38
2023-01-25T16:31:31.207Z,102883.41
2023-01-25T16:33:59.341Z,102872.19
2023-01-25T16:36:26.207Z,102846.19
2023-01-25T16:38:53.192Z,102853.09
2023-01-25T16:41:20.087Z,102859.03
2023-01-25T16:43:48.720Z,102831.41
2023-01-25T16:46:15.503Z,102865.00
2023-01-25T16:48:43.280Z,102857.19
2023-01-25T16:51:18.219Z,102846.84
2023-01-25T16:53:46.298Z,102821.75
2023-01-25T16:56:29.524Z,102844.19
2023-01-25T16:59:00.428Z,102829.34
2023-01-25T17:01:27.701Z,102810.38
2023-01-25T17:03:55.788Z,102813.03
2023-01-25T17:06:28.514Z,102806.94
2023-01-25T17:08:57.910Z,102784.41
2023-01-25T17:11:25.219Z,102785.25
2023-01-25T17:13:54.808Z,102757.66
2023-01-25T17:16:24.086Z,102771.50
2023-01-25T17:18:55.798Z,102775.75
2023-01-25T17:21:22.874Z,102765.28
2023-01-25T17:23:50.470Z,102761.88
2023-01-25T17:26:19.658Z,102760.97
2023-01-25T17:28:47.033Z,102760.06
2023-01-25T17:31:26.621Z,102756.56
2023-01-25T17:33:54.351Z,102738.53
2023-01-25T17:36:21.273Z,102752.28
2023-01-25T17:38:48.582Z,102741.88
2023-01-25T17:41:17.114Z,102742.69
2023-01-25T17:43:43.926Z,102744.47
2023-01-25T17:46:15.062Z,102738.38
2023-01-25T17:48:41.910Z,102722.03
2023-01-25T17:51:08.891Z,102728.84
2023-01-25T17:53:35.833Z,102691.06
2023-01-25T17:56:04.681Z,102720.25
2023-01-25T17:58:34.173Z,102719.38
2023-01-25T18:01:12.967Z,102690.03
2023-01-25T18:03:41.855Z,102642.59
2023-01-25T18:06:11.975Z,102677.91
2023-01-25T18:08:49.580Z,102672.63
2023-01-25T18:11:22.637Z,102686.38
2023-01-25T18:13:52.645Z,102692.53
2023-01-25T18:16:24.128Z,102690.81
2023-01-25T18:18:52.400Z,102700.25
2023-01-25T18:21:24.312Z,102682.94
2023-01-25T18:24:03.490Z,102672.50
2023-01-25T18:26:34.655Z,102667.94
2023-01-25T18:29:26.559Z,102665.44
2023-01-25T18:31:53.383Z,102670.63
2023-01-25T18:34:20.365Z,102661.13
2023-01-25T18:36:48.686Z,102657.75
2023-01-25T18:39:15.428Z,102664.66
2023-01-25T18:41:44.647Z,102668.03
2023-01-25T18:44:11.578Z,102649.00
2023-01-25T18:46:40.534Z,102668.16
2023-01-25T18:49:07.343Z,102644.94
2023-01-25T18:51:38.916Z,102673.41
2023-01-25T18:54:11.135Z,102650.09
2023-01-25T18:56:38.022Z,102640.63
2023-01-25T18:59:04.811Z,102670.03
2023-01-25T19:01:31.848Z,102671.81
2023-01-25T19:03:58.721Z,102670.03
2023-01-25T19:06:25.681Z,102673.41
2023-01-25T19:08:54.377Z,102626.81
2023-01-25T19:11:22.277Z,102657.75
2023-01-25T19:13:50.143Z,102623.16
2023-01-25T19:16:24.599Z,102593.81
2023-01-25T19:18:53.379Z,102617.03
2023-01-25T19:21:24.940Z,102647.19
2023-01-25T19:23:52.806Z,102652.50
2023-01-25T19:26:21.512Z,102639.44
2023-01-25T19:28:48.427Z,102592.13
2023-01-25T19:31:21.309Z,102645.47
2023-01-25T19:33:48.731Z,102646.31
2023-01-25T19:36:19.122Z,102589.41
2023-01-25T19:38:47.673Z,102628.03
2023-01-25T19:41:17.892Z,102588.41
2023-01-25T19:43:44.801Z,102604.66
2023-01-25T19:46:14.275Z,102617.53
2023-01-25T19:48:42.251Z,102620.28
2023-01-25T19:51:16.895Z,102631.53
2023-01-25T19:53:46.556Z,102630.72
2023-01-25T19:56:16.218Z,102612.59
2023-01-25T19:58:47.584Z,102615.06
2023-01-25T20:01:17.205Z,102609.03
2023-01-25T20:03:44.068Z,102579.91
2023-01-25T20:06:12.349Z,102608.19
2023-01-25T20:08:41.848Z,102606.41
2023-01-25T20:11:12.479Z,102584.03
2023-01-25T20:13:40.517Z,102593.44
2023-01-25T20:16:08.216Z,102549.59
2023-01-25T20:18:35.072Z,102578.00
2023-01-25T20:21:07.836Z,102552.16
2023-01-25T20:23:36.863Z,102597.69
2023-01-25T20:26:16.444Z,102593.38
2023-01-25T20:28:44.832Z,102571.00
2023-01-25T20:31:21.489Z,102590.72
2023-01-25T20:33:49.318Z,102582.94
2023-01-25T20:36:16.644Z,102593.25
2023-01-25T20:38:43.786Z,102595.81
2023-01-25T20:41:14.277Z,102580.19
2023-01-25T20:43:52.301Z,102574.22
2023-01-25T20:46:21.030Z,102556.28
2023-01-25T20:48:48.309Z,102588.09
2023-01-25T20:51:17.312Z,102597.56
2023-01-25T20:53:45.789Z,102575.13
2023-01-25T20:56:14.104Z,102568.22
2023-01-25T20:58:41.797Z,102555.34
2023-01-25T21:01:16.588Z,102584.53
2023-01-25T21:03:43.455Z,102579.38
2023-01-25T21:06:10.488Z,102562.13
2023-01-25T21:08:37.211Z,102550.88
2023-01-25T21:11:04.476Z,102549.13
2023-01-25T21:13:31.545Z,102585.94
2023-01-25T21:16:10.884Z,102572.03
2023-01-25T21:18:43.645Z,102585.81
2023-01-25T21:21:16.428Z,102587.63
2023-01-25T21:23:45.143Z,102547.97
2023-01-25T21:26:20.931Z,102548.78
2023-01-25T21:28:48.822Z,102528.94
2023-01-25T21:31:23.798Z,102566.63
2023-01-25T21:33:51.234Z,102518.38
2023-01-25T21:36:19.082Z,102531.22
2023-01-25T21:38:48.149Z,102558.81
2023-01-25T21:41:20.095Z,102556.31
2023-01-25T21:44:08.682Z,102547.69
2023-01-25T21:46:35.969Z,102519.34
2023-01-25T21:49:24.678Z,102516.66
2023-01-25T21:51:53.694Z,102534.72
2023-01-25T21:54:22.765Z,102461.72
2023-01-25T21:56:51.548Z,102510.06
2023-01-25T21:59:18.410Z,102519.44
2023-01-25T22:01:45.832Z,102530.53
2023-01-25T22:04:14.105Z,102535.63
2023-01-25T22:06:41.735Z,102487.53
2023-01-25T22:09:09.377Z,102491.81
2023-01-25T22:11:36.840Z,102501.28
2023-01-25T22:14:03.575Z,102523.59
2023-01-25T22:16:30.596Z,102517.63
2023-01-25T22:18:58.028Z,102496.94
2023-01-25T22:21:31.199Z,102525.34
2023-01-25T22:24:03.355Z,102526.84
2023-01-25T22:26:39.270Z,102409.09
2023-01-25T22:29:06.751Z,102489.06
2023-01-25T22:31:33.795Z,102500.19
2023-01-25T22:34:00.898Z,102523.44
2023-01-25T22:36:29.600Z,102523.41
2023-01-25T22:38:57.181Z,102495.84
2023-01-25T22:41:26.825Z,102485.41
2023-01-25T22:43:54.643Z,102510.31
2023-01-25T22:46:24.399Z,102506.00
2023-01-25T22:48:51.221Z,102505.09
2023-01-25T22:51:20.875Z,102508.56
2023-01-25T22:53:47.899Z,102507.66
2023-01-25T22:56:29.143Z,102499.88
2023-01-25T22:58:56.132Z,102473.28
2023-01-25T23:01:31.423Z,102463.84
2023-01-25T23:03:58.845Z,102504.16
2023-01-25T23:06:31.275Z,102502.44
2023-01-25T23:09:00.165Z,102505.09
2023-01-25T23:11:46.950Z,102509.38
2023-01-25T23:14:32.331Z,102487.84
2023-01-25T23:17:17.648Z,102497.31
2023-01-25T23:19:44.585Z,102464.63
2023-01-25T23:22:11.340Z,102480.09
2023-01-25T23:24:38.027Z,102472.38
2023-01-25T23:27:04.846Z,102474.81
2023-01-25T23:29:31.842Z,102473.16
2023-01-25T23:31:58.548Z,102432.78
2023-01-25T23:34:26.194Z,102484.31
2023-01-25T23:36:52.903Z,102484.28
2023-01-25T23:39:19.720Z,102468.75
2023-01-25T23:41:46.568Z,102430.09
2023-01-25T23:44:13.385Z,102463.69
2023-01-25T23:46:40.173Z,102372.63
2023-01-25T23:49:06.961Z,102471.22
2023-01-25T23:51:33.800Z,102473.81
2023-01-25T23:54:00.408Z,102441.03
2023-01-25T23:56:27.614Z,102442.69
2023-01-25T23:58:54.301Z,102465.03
